Time;durP1;ratioP1;P1;durP2;ratioP2;P2;SDS_P1;SDS_P2;PMS_P1;PMS_P2;Temp;Humidity;BMP_temperature;BMP_pressure;BME280_temperature;BME280_humidity;BME280_pressure;Samples;Min_cycle;Max_cycle;Signal;HPM_P1;HPM_P2
2023/07/22 07:23:02;;;;;;;14.52;11.52;;;;;;;-145.79;66.78;77080.53;5288417;28;20901;-67
2023/07/22 07:25:33;;;;;;;18.67;12.40;;;;;;;-145.79;67.01;77082.66;5287928;28;20071;-68
2023/07/22 07:28:05;;;;;;;14.07;12.18;;;;;;;-145.79;67.00;77074.19;5292520;28;20450;-67
2023/07/22 07:30:36;;;;;;;14.90;11.45;;;;;;;-145.79;66.95;77072.06;5285119;28;20028;-67
2023/07/22 07:33:07;;;;;;;15.93;10.15;;;;;;;-145.79;67.02;77065.69;5290640;28;20024;-63
2023/07/22 07:35:39;;;;;;;13.25;11.85;;;;;;;-145.79;67.17;77074.19;5287473;28;20024;-67
2023/07/22 07:38:10;;;;;;;15.38;11.18;;;;;;;-145.79;67.05;77055.09;5278628;28;20036;-66
2023/07/22 07:40:41;;;;;;;16.35;10.85;;;;;;;-145.79;67.09;77055.09;5285595;28;20028;-65
2023/07/22 07:43:12;;;;;;;13.05;11.57;;;;;;;-145.79;67.85;77055.09;5290794;28;20024;-66
2023/07/22 07:45:44;;;;;;;13.48;9.65;;;;;;;-145.79;66.83;77036.03;5282360;28;20472;-66
2023/07/22 07:48:15;;;;;;;15.57;10.55;;;;;;;-145.79;66.65;77023.31;5287853;28;20016;-67
2023/07/22 07:50:46;;;;;;;16.00;10.93;;;;;;;-145.79;66.61;77021.19;5289624;28;20032;-67
2023/07/22 07:53:18;;;;;;;14.43;9.93;;;;;;;-145.79;66.18;77008.47;5282605;28;20033;-67
2023/07/22 07:55:49;;;;;;;12.75;10.38;;;;;;;-145.79;66.13;77004.25;5280442;28;20021;-67
2023/07/22 07:58:20;;;;;;;12.40;10.82;;;;;;;-145.79;66.16;77010.59;5289189;28;20671;-66
2023/07/22 08:00:52;;;;;;;11.68;10.38;;;;;;;-145.79;66.01;77016.94;5282013;28;20068;-67
2023/07/22 08:03:23;;;;;;;15.82;10.55;;;;;;;-145.79;65.05;77000.00;5281441;28;20034;-67
2023/07/22 08:05:54;;;;;;;15.32;9.68;;;;;;;-145.79;65.06;76997.88;5281571;28;20119;-67
2023/07/22 08:08:26;;;;;;;12.07;8.50;;;;;;;-145.79;63.54;76966.09;5285922;28;20052;-67
2023/07/22 08:11:07;;;;;;;9.98;8.50;;;;;;;-145.79;62.28;76953.38;5291101;28;20059;-67
2023/07/22 08:13:40;;;;;;;11.50;8.93;;;;;;;-145.79;63.01;76955.50;5287962;28;20024;-67
2023/07/22 08:16:13;;;;;;;10.85;8.95;;;;;;;-145.79;62.08;76938.53;5285350;28;20024;-67
2023/07/22 08:18:46;;;;;;;11.43;8.55;;;;;;;-145.79;60.53;76908.88;5289613;28;20039;-67
2023/07/22 08:21:18;;;;;;;11.75;8.85;;;;;;;-145.79;61.72;76919.47;5287010;28;20051;-67
2023/07/22 08:23:49;;;;;;;12.45;9.07;;;;;;;-145.79;61.86;76919.47;5289915;28;20114;-67
2023/07/22 08:26:21;;;;;;;10.57;9.40;;;;;;;-145.79;62.09;76925.81;5287751;28;20055;-67
2023/07/22 08:28:53;;;;;;;13.30;8.50;;;;;;;-145.79;61.83;76913.09;5289163;28;20427;-67
2023/07/22 08:31:24;;;;;;;15.02;9.65;;;;;;;-145.79;61.86;76917.34;5290921;28;20024;-67
2023/07/22 08:33:56;;;;;;;14.20;11.88;;;;;;;-145.79;62.37;76927.94;5256627;28;20029;-67
2023/07/22 08:36:28;;;;;;;17.73;15.88;;;;;;;-145.79;62.73;76934.28;5268941;28;20108;-67
2023/07/22 08:38:59;;;;;;;16.50;13.63;;;;;;;-145.79;62.85;76910.97;5272070;28;20102;-67
2023/07/22 08:41:31;;;;;;;19.35;16.73;;;;;;;-145.79;62.40;76902.50;5274196;28;20108;-66
2023/07/22 08:44:04;;;;;;;10.57;9.38;;;;;;;-145.79;60.18;76889.78;5266539;28;20504;-67
2023/07/22 08:46:39;;;;;;;10.82;7.88;;;;;;;-145.79;59.48;76881.31;5267899;28;20024;-67
2023/07/22 08:49:10;;;;;;;10.50;7.63;;;;;;;-145.79;59.08;76853.75;5269565;28;20108;-67
2023/07/22 08:51:43;;;;;;;10.27;7.20;;;;;;;-145.79;58.54;76866.47;5259328;28;20436;-67
2023/07/22 08:54:14;;;;;;;11.60;7.75;;;;;;;-145.79;58.42;76832.56;5268202;28;20116;-65
2023/07/22 08:56:46;;;;;;;10.48;7.35;;;;;;;-145.79;57.85;76838.94;5256802;28;20096;-67
2023/07/22 08:59:18;;;;;;;10.80;7.72;;;;;;;-145.79;58.51;76828.31;5269639;28;20025;-67
2023/07/22 09:01:51;;;;;;;10.43;7.32;;;;;;;-145.79;57.14;76807.13;5276167;28;20032;-67
2023/07/22 09:04:23;;;;;;;9.25;7.82;;;;;;;-145.79;57.12;76826.22;5263994;28;20036;-67
2023/07/22 09:06:56;;;;;;;8.85;6.68;;;;;;;-145.79;56.86;76815.63;5269220;28;20453;-67
2023/07/22 09:09:27;;;;;;;19.95;17.92;;;;;;;-145.79;56.79;76824.09;5258533;28;20045;-67
2023/07/22 09:11:59;;;;;;;9.30;7.20;;;;;;;-145.79;55.37;76817.72;5271804;28;20031;-67
2023/07/22 09:14:33;;;;;;;8.75;7.43;;;;;;;-145.79;55.61;76815.63;5268335;28;20392;-67
2023/07/22 09:17:05;;;;;;;10.40;7.72;;;;;;;-145.79;56.58;76819.84;5266501;28;20100;-67
2023/07/22 09:19:37;;;;;;;11.05;7.80;;;;;;;-145.79;56.34;76800.78;5272226;28;20112;-67
2023/07/22 09:22:09;;;;;;;9.95;6.78;;;;;;;-145.79;55.33;76794.41;5260344;28;20056;-67
2023/07/22 09:24:41;;;;;;;8.95;6.95;;;;;;;-145.79;55.31;76775.34;5269868;28;20139;-67
2023/07/22 09:27:12;;;;;;;6.60;5.78;;;;;;;-145.79;54.88;76771.09;5267904;28;20495;-67
2023/07/22 09:29:46;;;;;;;7.85;5.70;;;;;;;-145.79;55.12;76762.63;5267745;28;20025;-68
2023/07/22 09:32:35;;;;;;;9.80;5.88;;;;;;;-145.79;55.27;76758.38;5264232;28;20048;-66
2023/07/22 09:35:09;;;;;;;7.93;6.30;;;;;;;-145.79;54.49;76758.38;5267100;28;20461;-67
2023/07/22 09:37:40;;;;;;;8.07;5.85;;;;;;;-145.79;54.53;76741.44;5268993;28;20508;-69
2023/07/22 09:40:16;;;;;;;7.25;5.82;;;;;;;-145.79;54.65;76724.47;5274329;28;20154;-69
2023/07/22 09:42:55;;;;;;;7.45;5.88;;;;;;;-145.79;54.26;76718.13;5273302;28;20032;-68
2023/07/22 09:45:31;;;;;;;7.13;5.68;;;;;;;-145.79;54.84;76732.97;5258640;28;20104;-67
2023/07/22 09:48:02;;;;;;;8.10;5.38;;;;;;;-145.79;54.13;76732.97;5272871;28;20135;-68
2023/07/22 09:50:36;;;;;;;5.63;5.03;;;;;;;-145.79;53.89;76735.06;5271683;28;20112;-68
2023/07/22 09:53:08;;;;;;;5.55;4.70;;;;;;;-145.79;54.07;76739.31;5271069;28;20108;-67
2023/07/22 09:55:39;;;;;;;9.55;4.90;;;;;;;-145.79;54.60;76732.97;5261901;28;20115;-68
2023/07/22 09:58:10;;;;;;;10.48;6.63;;;;;;;-145.79;54.43;76749.91;5258051;28;20476;-67
2023/07/22 10:00:48;;;;;;;6.80;4.32;;;;;;;-145.79;54.51;76754.16;5252759;28;20031;-68
2023/07/22 10:03:23;;;;;;;8.65;4.55;;;;;;;-145.79;54.02;76732.97;5261624;28;20074;-67
2023/07/22 10:05:55;;;;;;;9.10;4.60;;;;;;;-145.79;53.57;76732.97;5266788;28;20086;-67
2023/07/22 10:08:35;;;;;;;11.60;10.50;;;;;;;-145.79;53.92;76732.97;5268204;28;20029;-68
2023/07/22 10:11:08;;;;;;;6.25;5.15;;;;;;;-145.79;54.23;76737.19;5277359;28;20032;-67
2023/07/22 10:13:40;;;;;;;7.88;5.00;;;;;;;-145.79;54.37;76739.31;5271212;28;20028;-68
2023/07/22 10:16:12;;;;;;;7.85;4.68;;;;;;;-145.79;54.76;76737.19;5252032;28;20017;-68
2023/07/22 10:18:45;;;;;;;9.38;4.68;;;;;;;-145.79;54.17;76716.00;5267432;28;20093;-67
2023/07/22 10:21:17;;;;;;;5.82;4.18;;;;;;;-145.79;53.06;76722.34;5268070;28;20041;-68
2023/07/22 10:23:50;;;;;;;4.63;4.10;;;;;;;-145.79;53.42;76724.47;5273348;28;20365;-65
2023/07/22 10:26:21;;;;;;;7.75;4.30;;;;;;;-145.79;53.46;76730.84;5268739;28;20060;-66
2023/07/22 10:28:55;;;;;;;7.32;3.47;;;;;;;-145.79;52.85;76690.56;5270455;28;20078;-66
2023/07/22 10:31:30;;;;;;;9.82;4.95;;;;;;;-145.79;52.78;76692.69;5274707;28;20033;-67
2023/07/22 10:34:03;;;;;;;8.75;4.32;;;;;;;-145.79;53.20;76684.22;5273689;28;20028;-67
2023/07/22 10:36:35;;;;;;;16.23;14.43;;;;;;;-145.79;53.13;76690.56;5266160;28;20048;-68
2023/07/22 10:39:07;;;;;;;6.35;4.15;;;;;;;-145.79;52.40;76692.69;5263132;28;20032;-69
2023/07/22 10:41:39;;;;;;;4.85;3.75;;;;;;;-145.79;51.82;76688.44;5265085;28;20103;-68
2023/07/22 10:44:12;;;;;;;9.43;7.35;;;;;;;-145.79;50.64;76686.34;5274448;28;20025;-68
2023/07/22 10:46:57;;;;;;;4.53;3.05;;;;;;;-145.79;50.81;76669.38;5263743;28;20036;-68
2023/07/22 10:49:43;;;;;;;3.75;2.63;;;;;;;-145.79;49.25;76643.94;5260630;28;20040;-68
2023/07/22 10:52:39;;;;;;;5.88;3.75;;;;;;;-145.79;48.59;76631.22;5271623;28;21094;-69
2023/07/22 10:55:18;;;;;;;7.88;5.22;;;;;;;-145.79;48.46;76631.22;5261505;28;20067;-68
2023/07/22 10:57:52;;;;;;;8.13;2.90;;;;;;;-145.79;48.32;76635.47;5261652;28;20028;-69
2023/07/22 11:00:29;;;;;;;3.50;2.25;;;;;;;-145.79;48.14;76652.44;5270627;28;20412;-69
2023/07/22 11:03:19;;;;;;;3.88;2.75;;;;;;;-145.79;48.24;76641.84;5269463;28;20444;-68
2023/07/22 11:05:52;;;;;;;4.72;2.63;;;;;;;-145.79;47.65;76635.47;5262669;28;20036;-68
2023/07/22 11:08:40;;;;;;;4.90;2.50;;;;;;;-145.79;47.69;76643.94;5269540;28;20033;-68
2023/07/22 11:11:12;;;;;;;4.53;2.30;;;;;;;-145.79;47.18;76637.59;5272087;28;20502;-69
2023/07/22 11:13:43;;;;;;;3.70;2.33;;;;;;;-145.79;47.11;76631.22;5265510;28;20029;-68
2023/07/22 11:16:15;;;;;;;7.03;2.75;;;;;;;-145.79;46.85;76643.94;5274088;28;20028;-68
2023/07/22 11:18:46;;;;;;;4.32;3.05;;;;;;;-145.79;46.86;76614.28;5269845;28;20112;-68
2023/07/22 11:21:18;;;;;;;3.47;2.22;;;;;;;-145.79;46.30;76624.88;5262364;28;20224;-68
2023/07/22 11:23:49;;;;;;;3.40;1.80;;;;;;;-145.79;46.06;76597.31;5272964;28;20032;-68
2023/07/22 11:26:20;;;;;;;4.20;2.50;;;;;;;-145.79;46.39;76586.72;5269790;28;20025;-68
2023/07/22 11:28:53;;;;;;;4.38;2.70;;;;;;;-145.79;45.73;76590.97;5271651;28;20103;-68
2023/07/22 11:31:31;;;;;;;3.50;2.65;;;;;;;-145.79;46.47;76580.38;5269478;28;20048;-67
2023/07/22 11:34:03;;;;;;;4.82;2.35;;;;;;;-145.79;45.75;76571.91;5268099;28;20032;-68
2023/07/22 11:36:37;;;;;;;2.90;2.15;;;;;;;-145.79;45.77;76576.13;5269553;28;20495;-67
2023/07/22 11:39:16;;;;;;;3.80;2.60;;;;;;;-145.79;45.98;76578.25;5270936;28;20523;-68
2023/07/22 11:41:49;;;;;;;3.63;2.25;;;;;;;-145.79;45.67;76563.41;5268789;28;20036;-68
2023/07/22 11:44:26;;;;;;;4.85;2.45;;;;;;;-145.79;46.11;76559.19;5267655;28;20086;-68
2023/07/22 11:47:05;;;;;;;4.60;2.45;;;;;;;-145.79;44.46;76552.81;5271145;28;20386;-67
2023/07/22 11:49:38;;;;;;;6.40;3.33;;;;;;;-145.79;44.41;76559.19;5266885;28;20079;-67
2023/07/22 11:52:19;;;;;;;3.67;2.30;;;;;;;-145.79;45.00;76529.50;5263834;28;20029;-67
2023/07/22 11:54:50;;;;;;;4.03;2.80;;;;;;;-145.79;45.01;76538.00;5269391;28;20130;-66
2023/07/22 11:57:23;;;;;;;5.15;2.50;;;;;;;-145.79;45.33;76531.63;5266433;28;20137;-67
2023/07/22 11:59:56;;;;;;;7.43;2.42;;;;;;;-145.79;43.91;76542.22;5268716;28;20149;-67
2023/07/22 12:02:31;;;;;;;4.72;2.50;;;;;;;-145.79;44.12;76546.47;5262613;28;20033;-66
2023/07/22 12:05:05;;;;;;;3.05;2.00;;;;;;;-145.79;44.17;76546.47;5274293;28;20391;-66
2023/07/22 12:07:38;;;;;;;5.43;2.65;;;;;;;-145.79;43.84;76533.75;5268590;28;20392;-68
2023/07/22 12:10:10;;;;;;;2.47;2.25;;;;;;;-145.79;43.90;76533.75;5273243;28;20120;-66
2023/07/22 12:12:45;;;;;;;3.33;1.98;;;;;;;-145.79;43.64;76518.91;5273544;28;20055;-67
2023/07/22 12:15:19;;;;;;;6.10;2.92;;;;;;;-145.79;43.53;76516.78;5268172;28;20029;-67
2023/07/22 12:18:00;;;;;;;3.55;2.88;;;;;;;-145.79;44.01;76504.09;5264812;28;20025;-68
2023/07/22 12:20:35;;;;;;;3.20;2.42;;;;;;;-145.79;44.18;76499.84;5273041;28;20037;-68
2023/07/22 12:23:06;;;;;;;6.22;2.53;;;;;;;-145.79;43.91;76491.38;5269880;28;20037;-67
2023/07/22 12:25:38;;;;;;;7.43;5.07;;;;;;;-145.79;43.42;76495.59;5274180;28;20032;-67
2023/07/22 12:28:10;;;;;;;4.72;3.08;;;;;;;-145.79;43.90;76478.66;5271853;28;20070;-67
2023/07/22 12:30:42;;;;;;;6.25;2.80;;;;;;;-145.79;43.29;76491.38;5273289;28;20104;-67
2023/07/22 12:33:13;;;;;;;4.25;2.40;;;;;;;-145.79;41.82;76499.84;5276502;28;20104;-67
2023/07/22 12:35:44;;;;;;;9.55;7.57;;;;;;;-145.79;41.81;76482.88;5268468;28;20399;-68
2023/07/22 12:38:16;;;;;;;4.13;2.90;;;;;;;-145.79;42.00;76489.25;5272509;28;20116;-67
2023/07/22 12:40:47;;;;;;;4.55;2.88;;;;;;;-145.79;42.48;76478.66;5271667;28;20027;-68
2023/07/22 12:43:18;;;;;;;3.75;2.17;;;;;;;-145.79;41.52;76504.09;5267838;28;20104;-67
2023/07/22 12:45:50;;;;;;;5.82;2.60;;;;;;;-145.79;41.67;76487.13;5272626;28;20037;-68
2023/07/22 12:48:21;;;;;;;3.25;2.00;;;;;;;-145.79;41.87;76487.13;5268645;28;20024;-68
2023/07/22 12:50:53;;;;;;;6.05;2.10;;;;;;;-145.79;41.38;76485.00;5275853;28;20025;-67
2023/07/22 12:53:25;;;;;;;3.83;2.05;;;;;;;-145.79;41.20;76465.94;5266661;28;20094;-67
2023/07/22 12:55:56;;;;;;;5.82;1.92;;;;;;;-145.79;41.48;76470.19;5270042;28;20476;-68
2023/07/22 12:58:28;;;;;;;5.95;2.53;;;;;;;-145.79;41.44;76468.06;5270556;28;20071;-68
2023/07/22 13:00:59;;;;;;;4.72;2.15;;;;;;;-145.79;41.26;76476.53;5270700;28;20021;-68
2023/07/22 13:03:31;;;;;;;5.43;2.95;;;;;;;-145.79;40.79;76491.38;5273619;28;20055;-68
2023/07/22 13:06:02;;;;;;;2.63;2.33;;;;;;;-145.79;41.11;76470.19;5270591;28;20036;-68
2023/07/22 13:08:33;;;;;;;6.47;2.67;;;;;;;-145.79;41.28;76438.38;5265601;28;20053;-68
2023/07/22 13:11:05;;;;;;;6.57;3.97;;;;;;;-145.79;40.85;76421.44;5269867;28;20491;-68
2023/07/22 13:13:36;;;;;;;7.95;7.20;;;;;;;-145.79;39.85;76415.06;5263394;28;20375;-68
2023/07/22 13:16:07;;;;;;;4.10;2.10;;;;;;;-145.79;39.75;76402.38;5257232;28;20037;-68
2023/07/22 13:18:39;;;;;;;8.85;2.42;;;;;;;-145.79;39.91;76393.88;5266143;28;20031;-68
2023/07/22 13:21:10;;;;;;;3.45;2.17;;;;;;;-145.79;39.75;76393.88;5257693;28;20065;-68
2023/07/22 13:23:42;;;;;;;3.17;1.88;;;;;;;-145.79;39.32;76398.13;5269074;28;20037;-68
2023/07/22 13:26:13;;;;;;;4.10;1.80;;;;;;;-145.79;39.36;76372.69;5267446;28;20033;-69
2023/07/22 13:28:44;;;;;;;3.75;1.70;;;;;;;-145.79;38.45;76381.16;5273541;28;20029;-66
2023/07/22 13:31:16;;;;;;;2.72;1.85;;;;;;;-145.79;38.53;76374.81;5270820;28;20024;-67
2023/07/22 13:33:47;;;;;;;3.47;1.73;;;;;;;-145.79;38.83;76351.50;5265822;28;20433;-66
2023/07/22 13:36:18;;;;;;;2.53;1.73;;;;;;;-145.79;38.72;76328.19;5275462;28;20086;-67
2023/07/22 13:38:49;;;;;;;2.70;1.80;;;;;;;-145.79;38.89;76307.00;5272908;28;20472;-68
2023/07/22 13:41:21;;;;;;;3.35;1.60;;;;;;;-145.79;38.38;76313.34;5272628;28;20056;-67
2023/07/22 13:43:52;;;;;;;5.05;2.13;;;;;;;-145.79;38.12;76323.97;5269740;28;20029;-67
2023/07/22 13:46:23;;;;;;;4.35;2.35;;;;;;;-145.79;38.53;76343.03;5270552;28;20079;-65
2023/07/22 13:48:55;;;;;;;3.15;1.90;;;;;;;-145.79;38.60;76343.03;5272399;28;20118;-65
2023/07/22 13:51:31;;;;;;;2.63;2.08;;;;;;;-145.79;38.73;76330.31;5271299;28;20025;-67
2023/07/22 13:54:03;;;;;;;8.88;8.07;;;;;;;-145.79;37.93;76347.25;5270560;28;20037;-67
2023/07/22 13:56:34;;;;;;;3.28;1.95;;;;;;;-145.79;37.49;76338.78;5275260;28;20077;-67
2023/07/22 13:59:05;;;;;;;5.80;2.10;;;;;;;-145.79;37.78;76332.44;5262835;28;20462;-67
2023/07/22 14:01:37;;;;;;;4.22;1.98;;;;;;;-145.79;37.57;76332.44;5263460;28;20021;-67
2023/07/22 14:04:08;;;;;;;2.72;2.00;;;;;;;-145.79;37.98;76338.78;5270238;28;20083;-69
2023/07/22 14:06:40;;;;;;;2.55;2.03;;;;;;;-145.79;38.29;76340.91;5263151;28;20020;-67
2023/07/22 14:09:11;;;;;;;3.42;2.20;;;;;;;-145.79;38.36;76336.66;5265738;28;20118;-66
2023/07/22 14:11:43;;;;;;;5.07;2.22;;;;;;;-145.79;38.23;76311.25;5270876;28;20487;-66
2023/07/22 14:14:14;;;;;;;5.43;1.90;;;;;;;-145.79;37.24;76326.06;5265553;28;20025;-66
2023/07/22 14:16:45;;;;;;;8.00;2.47;;;;;;;-145.79;37.28;76319.72;5266055;28;20096;-69
2023/07/22 14:19:17;;;;;;;3.22;2.15;;;;;;;-145.79;37.32;76300.66;5264755;28;20021;-68
2023/07/22 14:21:48;;;;;;;3.60;2.13;;;;;;;-145.79;37.68;76307.00;5271029;28;20056;-67
2023/07/22 14:24:19;;;;;;;2.47;1.73;;;;;;;-145.79;37.24;76328.19;5254552;28;20055;-67
2023/07/22 14:26:50;;;;;;;3.63;2.75;;;;;;;-145.79;37.55;76334.56;5272256;28;20123;-68
2023/07/22 14:29:22;;;;;;;7.88;4.55;;;;;;;-145.79;37.75;76330.31;5270384;28;20039;-67
2023/07/22 14:31:56;;;;;;;5.30;2.30;;;;;;;-145.79;37.90;76332.44;5271199;28;20028;-67
2023/07/22 14:34:27;;;;;;;4.38;2.30;;;;;;;-145.79;38.14;76330.31;5269373;28;20522;-67
2023/07/22 14:36:58;;;;;;;6.05;2.65;;;;;;;-145.79;37.91;76353.63;5271259;28;20040;-68
2023/07/22 14:39:30;;;;;;;14.32;12.38;;;;;;;-145.79;37.80;76359.97;5270682;28;20327;-68
2023/07/22 14:42:01;;;;;;;4.90;2.53;;;;;;;-145.79;37.84;76385.41;5268657;28;20086;-67
2023/07/22 14:44:32;;;;;;;7.13;3.63;;;;;;;-145.79;37.89;76381.16;5269753;28;20029;-68
2023/07/22 14:47:04;;;;;;;8.20;2.75;;;;;;;-145.79;37.97;76393.88;5272439;28;20029;-67
2023/07/22 14:49:35;;;;;;;7.60;4.93;;;;;;;-145.79;38.09;76402.38;5272785;28;20031;-68
2023/07/22 14:52:07;;;;;;;3.13;2.00;;;;;;;-145.79;38.39;76408.72;5267506;28;20480;-67
2023/07/22 14:54:38;;;;;;;5.95;1.90;;;;;;;-145.79;38.75;76423.56;5270372;28;20020;-67
2023/07/22 14:57:09;;;;;;;3.95;1.90;;;;;;;-145.79;38.97;76440.50;5266092;28;20020;-68
2023/07/22 14:59:41;;;;;;;3.78;2.80;;;;;;;-145.79;39.22;76444.75;5269969;28;20108;-82
2023/07/22 15:02:12;;;;;;;4.15;2.63;;;;;;;-145.79;40.09;76457.47;5271966;28;20135;-88
2023/07/22 15:04:43;;;;;;;5.55;2.58;;;;;;;-145.79;41.30;76468.06;5278132;28;20029;-83
2023/07/22 15:07:15;;;;;;;4.00;2.63;;;;;;;-145.79;41.63;76455.34;5274872;28;20099;-86
2023/07/22 15:09:46;;;;;;;6.20;2.33;;;;;;;-145.79;42.69;76461.69;5269637;28;20068;-87
2023/07/22 15:12:18;;;;;;;5.13;2.88;;;;;;;-145.79;42.90;76455.34;5256389;28;20026;-87
2023/07/22 15:14:49;;;;;;;3.70;2.40;;;;;;;-145.79;43.67;76455.34;5263343;28;20033;-88
2023/07/22 15:17:23;;;;;;;4.22;3.28;;;;;;;-145.79;44.28;76436.28;5269841;28;20452;-81
2023/07/22 15:19:55;;;;;;;8.57;5.32;;;;;;;-145.79;45.24;76432.03;5268592;28;20628;-88
2023/07/22 15:22:26;;;;;;;4.88;3.15;;;;;;;-145.79;46.11;76457.47;5272924;28;20131;-77
2023/07/22 15:24:57;;;;;;;5.85;3.35;;;;;;;-145.79;46.20;76457.47;5266259;28;20157;-79
2023/07/22 15:27:29;;;;;;;2.92;2.45;;;;;;;-145.79;46.42;76476.53;5265389;28;20044;-78
2023/07/22 15:30:00;;;;;;;6.32;2.90;;;;;;;-145.79;46.48;76476.53;5262222;28;20029;-81
2023/07/22 15:32:32;;;;;;;4.55;2.63;;;;;;;-145.79;46.00;76482.88;5269696;28;20089;-87
2023/07/22 15:35:03;;;;;;;5.43;2.70;;;;;;;-145.79;46.04;76482.88;5263152;28;20035;-80
2023/07/22 15:37:35;;;;;;;8.73;3.35;;;;;;;-145.79;46.56;76487.13;5273554;28;20143;-83
2023/07/22 15:40:06;;;;;;;19.40;17.48;;;;;;;-145.79;46.89;76482.88;5270662;28;20040;-87
2023/07/22 15:42:38;;;;;;;6.35;3.55;;;;;;;-145.79;47.19;76482.88;5275733;28;20024;-86
2023/07/22 15:45:10;;;;;;;5.75;2.97;;;;;;;-145.79;47.70;76512.56;5275980;28;20021;-87
2023/07/22 15:47:41;;;;;;;4.03;2.53;;;;;;;-145.79;47.80;76514.69;5274520;28;20025;-78
2023/07/22 15:50:13;;;;;;;6.65;2.58;;;;;;;-145.79;47.93;76508.31;5274073;28;20029;-78
2023/07/22 15:52:45;;;;;;;6.43;3.08;;;;;;;-145.79;48.26;76501.97;5277782;28;20081;-78
2023/07/22 15:55:17;;;;;;;7.45;3.58;;;;;;;-145.79;48.31;76504.09;5262814;28;20111;-78
2023/07/22 15:57:48;;;;;;;3.00;2.67;;;;;;;-145.79;47.92;76495.59;5277926;28;20559;-87
2023/07/22 16:00:19;;;;;;;6.50;2.85;;;;;;;-145.79;47.61;76482.88;5269728;28;20032;-89
2023/07/22 16:02:51;;;;;;;8.50;2.75;;;;;;;-145.79;48.02;76491.38;5272794;28;20040;-86
2023/07/22 16:05:22;;;;;;;4.45;2.70;;;;;;;-145.79;47.19;76510.44;5273898;28;20496;-83
2023/07/22 16:07:54;;;;;;;4.60;3.17;;;;;;;-145.79;47.85;76512.56;5276098;28;20028;-88
2023/07/22 16:10:25;;;;;;;2.88;2.55;;;;;;;-145.79;47.69;76508.31;5266159;28;20114;-88
2023/07/22 16:12:57;;;;;;;9.15;3.83;;;;;;;-145.79;47.22;76499.84;5275754;28;20029;-85
2023/07/22 16:15:28;;;;;;;4.13;2.80;;;;;;;-145.79;47.61;76510.44;5269954;28;20055;-82
2023/07/22 16:18:00;;;;;;;4.22;3.13;;;;;;;-145.79;47.52;76512.56;5276128;28;20033;-86
2023/07/22 16:20:31;;;;;;;4.20;2.78;;;;;;;-145.79;47.44;76510.44;5266713;28;20021;-82
2023/07/22 16:23:03;;;;;;;5.22;2.55;;;;;;;-145.79;47.72;76525.28;5268564;28;20035;-83
2023/07/22 16:25:34;;;;;;;6.60;2.92;;;;;;;-145.79;47.33;76518.91;5265320;28;20460;-84
2023/07/22 16:28:05;;;;;;;3.17;2.60;;;;;;;-145.79;47.41;76535.88;5276311;28;20032;-84
2023/07/22 16:30:37;;;;;;;6.90;6.25;;;;;;;-145.79;47.30;76529.50;5270802;28;20040;-84
2023/07/22 16:33:08;;;;;;;2.65;2.33;;;;;;;-145.79;47.05;76533.75;5270591;28;20036;-84
2023/07/22 16:35:39;;;;;;;4.97;2.25;;;;;;;-145.79;47.19;76546.47;5275898;28;20021;-87
2023/07/22 16:38:11;;;;;;;4.05;2.40;;;;;;;-145.79;46.97;76538.00;5262811;28;20056;-87
2023/07/22 16:40:42;;;;;;;5.57;2.35;;;;;;;-145.79;46.58;76538.00;5267573;28;20029;-87
2023/07/22 16:43:13;;;;;;;2.83;2.35;;;;;;;-145.79;46.71;76533.75;5256652;28;20064;-87
2023/07/22 16:45:45;;;;;;;3.65;2.40;;;;;;;-145.79;46.73;76538.00;5269384;28;20024;-86
2023/07/22 16:48:16;;;;;;;22.40;20.15;;;;;;;-145.79;46.67;76529.50;5264819;28;20025;-85
2023/07/22 16:50:47;;;;;;;5.65;2.72;;;;;;;-145.79;46.11;76533.75;5270871;28;20117;-78
2023/07/22 16:53:19;;;;;;;4.20;2.30;;;;;;;-145.79;45.93;76529.50;5264878;28;20108;-77
